createdAt,value
2019-03-20T00:00:04.460Z,31.97
2019-03-20T00:02:33.948Z,30.97
2019-03-20T00:05:02.749Z,40.73
2019-03-20T00:07:31.539Z,33.97
2019-03-20T00:10:00.381Z,34.23
2019-03-20T00:12:29.189Z,35.40
2019-03-20T00:14:57.971Z,38.03
2019-03-20T00:17:26.866Z,39.10
2019-03-20T00:19:55.719Z,33.40
2019-03-20T00:22:24.670Z,40.93
2019-03-20T00:24:53.465Z,30.83
2019-03-20T00:27:22.248Z,33.53
2019-03-20T00:29:51.041Z,38.00
2019-03-20T00:32:21.669Z,36.47
2019-03-20T00:35:00.359Z,37.73
2019-03-20T00:37:19.335Z,39.93
2019-03-20T00:39:48.126Z,39.37
2019-03-20T00:42:17.195Z,49.97
2019-03-20T00:44:45.977Z,40.53
2019-03-20T00:47:14.787Z,36.43
2019-03-20T00:49:44.862Z,37.83
2019-03-20T00:52:13.655Z,33.83
2019-03-20T00:54:42.439Z,38.57
2019-03-20T00:57:11.235Z,31.37
2019-03-20T00:59:41.585Z,34.37
2019-03-20T01:02:10.399Z,39.43
2019-03-20T01:04:39.174Z,42.13
2019-03-20T01:07:10.137Z,30.73
2019-03-20T01:09:37.155Z,34.13
2019-03-20T01:12:05.970Z,38.67
2019-03-20T01:14:35.324Z,27.77
2019-03-20T01:17:05.398Z,45.27
2019-03-20T01:19:34.296Z,48.63
2019-03-20T01:22:03.114Z,39.00
2019-03-20T01:24:31.899Z,30.57
2019-03-20T01:27:00.772Z,32.67
2019-03-20T01:29:29.652Z,33.60
2019-03-20T01:31:58.449Z,36.47
2019-03-20T01:34:27.245Z,32.23
2019-03-20T01:36:56.038Z,34.80
2019-03-20T01:39:24.883Z,35.97
2019-03-20T01:41:53.807Z,37.93
2019-03-20T01:44:22.607Z,35.47
2019-03-20T01:46:51.535Z,31.87
2019-03-20T01:49:20.357Z,36.37
2019-03-20T01:51:49.152Z,36.93
2019-03-20T01:54:17.994Z,43.20
2019-03-20T01:56:46.783Z,31.97
2019-03-20T01:59:15.619Z,35.27
2019-03-20T02:01:44.421Z,38.83
2019-03-20T02:04:13.224Z,25.77
2019-03-20T02:06:42.137Z,38.60
2019-03-20T02:09:10.887Z,33.73
2019-03-20T02:11:39.685Z,28.47
2019-03-20T02:14:08.622Z,32.80
2019-03-20T02:16:37.503Z,28.43
2019-03-20T02:19:06.283Z,31.47
2019-03-20T02:21:35.073Z,33.93
2019-03-20T02:24:03.859Z,35.30
2019-03-20T02:26:32.640Z,36.17
2019-03-20T02:29:01.434Z,35.57
2019-03-20T02:31:30.254Z,35.87
2019-03-20T02:33:59.024Z,35.93
2019-03-20T02:36:27.894Z,39.47
2019-03-20T02:38:56.700Z,40.07
2019-03-20T02:41:25.476Z,33.30
2019-03-20T02:43:54.252Z,32.77
2019-03-20T02:46:23.128Z,40.43
2019-03-20T02:48:52.015Z,41.27
2019-03-20T02:51:20.815Z,33.83
2019-03-20T02:53:49.636Z,34.23
2019-03-20T02:56:18.480Z,32.60
2019-03-20T02:58:47.375Z,36.53
2019-03-20T03:01:16.259Z,30.37
2019-03-20T03:03:45.250Z,39.57
2019-03-20T03:06:14.132Z,30.87
2019-03-20T03:08:43.126Z,36.57
2019-03-20T03:11:11.915Z,35.57
2019-03-20T03:13:40.810Z,46.87
2019-03-20T03:16:09.594Z,35.40
2019-03-20T03:18:38.406Z,35.80
2019-03-20T03:21:07.180Z,33.83
2019-03-20T03:23:35.980Z,34.73
2019-03-20T03:26:04.759Z,36.23
2019-03-20T03:28:33.633Z,24.50
2019-03-20T03:31:02.433Z,25.97
2019-03-20T03:33:31.326Z,29.83
2019-03-20T03:36:00.114Z,26.17
2019-03-20T03:38:28.917Z,36.13
2019-03-20T03:40:57.716Z,29.70
2019-03-20T03:43:26.490Z,28.63
2019-03-20T03:45:55.293Z,25.30
2019-03-20T03:48:24.075Z,34.50
2019-03-20T03:50:52.884Z,34.33
2019-03-20T03:53:21.748Z,29.73
2019-03-20T03:55:50.531Z,28.83
2019-03-20T03:58:19.329Z,32.67
2019-03-20T04:00:48.117Z,32.60
2019-03-20T04:03:16.941Z,31.10
2019-03-20T04:05:45.753Z,36.13
2019-03-20T04:08:14.626Z,28.50
2019-03-20T04:10:43.487Z,30.53
2019-03-20T04:13:12.267Z,28.57
2019-03-20T04:15:41.064Z,32.40
2019-03-20T04:18:09.964Z,33.17
2019-03-20T04:20:38.805Z,27.30
2019-03-20T04:23:07.694Z,28.80
2019-03-20T04:25:36.538Z,29.43
2019-03-20T04:28:05.309Z,34.97
2019-03-20T04:30:34.215Z,27.67
2019-03-20T04:33:03.814Z,28.87
2019-03-20T04:35:32.638Z,31.63
2019-03-20T04:38:01.764Z,30.03
2019-03-20T04:40:31.111Z,35.77
2019-03-20T04:42:59.942Z,32.37
2019-03-20T04:45:28.746Z,30.77
2019-03-20T04:47:57.542Z,23.23
2019-03-20T04:50:26.336Z,32.20
2019-03-20T04:52:55.118Z,34.47
2019-03-20T04:55:23.921Z,43.27
2019-03-20T04:57:52.720Z,38.30
2019-03-20T05:00:21.548Z,32.80
2019-03-20T05:02:50.330Z,38.47
2019-03-20T05:05:19.162Z,38.70
2019-03-20T05:07:47.963Z,28.73
2019-03-20T05:10:16.767Z,37.33
2019-03-20T05:12:45.560Z,33.30
2019-03-20T05:15:14.615Z,29.83
2019-03-20T05:17:43.365Z,32.63
2019-03-20T05:20:12.767Z,29.97
2019-03-20T05:22:41.615Z,30.90
2019-03-20T05:25:10.418Z,31.13
2019-03-20T05:27:39.271Z,31.83
2019-03-20T05:30:08.466Z,34.67
2019-03-20T05:32:37.263Z,36.03
2019-03-20T05:35:06.102Z,30.43
2019-03-20T05:37:34.932Z,35.00
2019-03-20T05:40:04.092Z,34.97
2019-03-20T05:42:32.924Z,36.37
2019-03-20T05:45:01.783Z,38.27
2019-03-20T05:47:30.627Z,33.03
2019-03-20T05:49:59.460Z,32.37
2019-03-20T05:52:28.311Z,32.53
2019-03-20T05:54:57.168Z,29.67
2019-03-20T05:57:25.966Z,30.97
2019-03-20T05:59:54.814Z,38.37
2019-03-20T06:02:25.726Z,35.33
2019-03-20T06:04:52.392Z,34.80
2019-03-20T06:07:22.063Z,33.07
2019-03-20T06:09:50.038Z,36.77
2019-03-20T06:12:18.794Z,37.70
2019-03-20T06:14:47.583Z,31.10
2019-03-20T06:17:16.403Z,32.30
2019-03-20T06:19:45.523Z,31.60
2019-03-20T06:22:14.332Z,36.93
2019-03-20T06:24:43.167Z,33.50
2019-03-20T06:27:11.951Z,30.83
2019-03-20T06:29:40.743Z,36.07
2019-03-20T06:32:09.539Z,36.97
2019-03-20T06:34:38.322Z,32.63
2019-03-20T06:37:07.152Z,28.80
2019-03-20T06:39:35.947Z,31.93
2019-03-20T06:42:04.794Z,29.70
2019-03-20T06:44:33.666Z,34.60
2019-03-20T06:47:02.444Z,36.63
2019-03-20T06:49:31.248Z,28.27
2019-03-20T06:52:00.046Z,34.93
2019-03-20T06:54:28.840Z,34.17
2019-03-20T06:56:57.629Z,33.03
2019-03-20T07:01:37.304Z,33.37
2019-03-20T07:04:45.038Z,41.10
2019-03-20T07:07:24.730Z,29.90
2019-03-20T07:10:05.602Z,28.43
2019-03-20T07:12:34.392Z,36.43
2019-03-20T07:15:03.219Z,32.77
2019-03-20T07:17:32.011Z,36.80
2019-03-20T07:20:00.818Z,33.80
2019-03-20T07:22:29.602Z,32.80
2019-03-20T07:24:58.477Z,28.97
2019-03-20T07:27:27.279Z,27.43
2019-03-20T07:29:56.126Z,35.77
2019-03-20T07:32:26.832Z,31.20
2019-03-20T07:34:55.690Z,42.90
2019-03-20T07:37:24.545Z,33.10
2019-03-20T07:39:53.326Z,34.67
2019-03-20T07:42:22.144Z,34.47
2019-03-20T07:44:50.931Z,39.57
2019-03-20T07:47:19.743Z,39.27
2019-03-20T07:49:49.536Z,39.47
2019-03-20T07:52:18.586Z,35.77
2019-03-20T07:54:47.423Z,40.23
2019-03-20T07:57:16.254Z,37.53
2019-03-20T07:59:45.066Z,38.10
2019-03-20T08:02:13.891Z,40.83
2019-03-20T08:04:42.697Z,50.30
2019-03-20T08:07:11.495Z,47.33
2019-03-20T08:09:40.292Z,42.90
2019-03-20T08:12:09.104Z,41.87
2019-03-20T08:14:37.987Z,49.03
2019-03-20T08:17:06.798Z,52.37
2019-03-20T08:19:35.607Z,51.87
2019-03-20T08:22:04.506Z,53.53
2019-03-20T08:24:33.320Z,53.37
2019-03-20T08:27:02.120Z,56.57
2019-03-20T08:29:30.935Z,58.30
2019-03-20T08:31:59.754Z,60.87
2019-03-20T08:34:28.578Z,58.17
2019-03-20T08:36:57.428Z,58.23
2019-03-20T08:39:27.455Z,58.63
2019-03-20T08:41:56.469Z,68.17
2019-03-20T08:44:25.242Z,66.40
2019-03-20T08:46:54.067Z,61.10
2019-03-20T08:49:22.859Z,65.63
2019-03-20T08:51:51.646Z,59.27
2019-03-20T08:54:20.461Z,54.53
2019-03-20T08:56:49.891Z,66.10
2019-03-20T08:59:18.767Z,55.37
2019-03-20T09:01:47.569Z,65.83
2019-03-20T09:04:16.794Z,62.07
2019-03-20T09:06:45.597Z,72.33
2019-03-20T09:09:14.987Z,61.93
2019-03-20T09:11:43.880Z,62.50
2019-03-20T09:14:12.783Z,67.00
2019-03-20T09:16:43.215Z,68.30
2019-03-20T09:19:13.264Z,70.60
2019-03-20T09:21:42.066Z,67.40
2019-03-20T09:24:10.894Z,62.07
2019-03-20T09:26:39.671Z,72.87
2019-03-20T09:29:18.148Z,71.97
2019-03-20T09:31:37.330Z,70.43
2019-03-20T09:34:06.254Z,74.07
2019-03-20T09:36:42.776Z,67.30
2019-03-20T09:39:04.283Z,69.73
2019-03-20T09:41:33.156Z,74.17
2019-03-20T09:44:02.004Z,70.03
2019-03-20T09:46:30.781Z,78.33
2019-03-20T09:48:59.594Z,69.60
2019-03-20T09:51:28.404Z,68.70
2019-03-20T09:53:57.194Z,69.43
2019-03-20T09:56:26.054Z,71.93
2019-03-20T09:58:54.903Z,70.57
2019-03-20T10:01:23.696Z,73.97
2019-03-20T10:03:52.564Z,79.43
2019-03-20T10:06:21.342Z,75.37
2019-03-20T10:08:53.985Z,66.57
2019-03-20T10:11:18.984Z,69.30
2019-03-20T10:13:47.818Z,72.97
2019-03-20T10:16:16.632Z,69.33
2019-03-20T10:18:45.448Z,74.67
2019-03-20T10:21:14.247Z,69.40
2019-03-20T10:23:43.107Z,71.53
2019-03-20T10:26:11.902Z,70.77
2019-03-20T10:28:40.835Z,78.03
2019-03-20T10:31:09.634Z,72.93
2019-03-20T10:33:38.483Z,70.03
2019-03-20T10:36:07.260Z,68.73
2019-03-20T10:38:36.070Z,75.37
2019-03-20T10:41:04.926Z,73.90
2019-03-20T10:43:33.728Z,66.57
2019-03-20T10:46:02.548Z,73.37
2019-03-20T10:48:31.347Z,80.93
2019-03-20T10:51:00.197Z,73.00
2019-03-20T10:53:28.991Z,76.83
2019-03-20T10:55:57.869Z,73.87
2019-03-20T10:58:26.656Z,68.50
2019-03-20T11:00:55.455Z,71.10
2019-03-20T11:03:24.257Z,70.03
2019-03-20T11:05:53.071Z,73.57
2019-03-20T11:08:21.872Z,69.83
2019-03-20T11:10:51.418Z,74.70
2019-03-20T11:13:20.223Z,70.30
2019-03-20T11:15:49.052Z,64.10
2019-03-20T11:18:17.898Z,74.53
2019-03-20T11:20:46.710Z,70.87
2019-03-20T11:23:15.595Z,63.67
2019-03-20T11:25:44.446Z,70.00
2019-03-20T11:28:13.272Z,67.00
2019-03-20T11:30:42.071Z,73.20
2019-03-20T11:33:10.860Z,69.30
2019-03-20T11:35:42.349Z,69.97
2019-03-20T11:38:08.472Z,66.50
2019-03-20T11:40:37.323Z,70.17
2019-03-20T11:43:06.190Z,78.03
2019-03-20T11:45:35.018Z,71.57
2019-03-20T11:48:03.848Z,69.57
2019-03-20T11:50:34.952Z,69.90
2019-03-20T11:53:03.836Z,74.20
2019-03-20T11:55:32.667Z,72.23
2019-03-20T11:58:01.469Z,67.50
2019-03-20T12:00:30.263Z,69.33
2019-03-20T12:02:59.102Z,70.57
2019-03-20T12:05:27.890Z,71.27
2019-03-20T12:07:56.686Z,72.37
2019-03-20T12:10:25.524Z,70.77
2019-03-20T12:12:54.295Z,71.70
2019-03-20T12:15:23.215Z,72.80
2019-03-20T12:17:52.056Z,68.60
2019-03-20T12:20:20.878Z,64.37
2019-03-20T12:22:49.708Z,68.47
2019-03-20T12:25:21.563Z,69.67
2019-03-20T12:27:50.364Z,70.27
2019-03-20T12:30:20.773Z,73.60
2019-03-20T12:32:49.555Z,71.90
2019-03-20T12:35:18.394Z,66.83
2019-03-20T12:37:47.211Z,65.63
2019-03-20T12:40:19.321Z,71.30
2019-03-20T12:42:48.130Z,64.90
2019-03-20T12:45:17.640Z,61.33
2019-03-20T12:47:46.699Z,68.77
2019-03-20T12:50:15.513Z,61.93
2019-03-20T12:52:45.463Z,64.33
2019-03-20T12:55:14.502Z,67.07
2019-03-20T12:57:43.307Z,56.33
2019-03-20T13:00:16.072Z,64.90
2019-03-20T13:02:44.949Z,57.10
2019-03-20T13:05:14.361Z,63.53
2019-03-20T13:07:43.326Z,56.33
2019-03-20T13:10:14.998Z,59.57
2019-03-20T13:12:43.957Z,61.17
2019-03-20T13:15:16.150Z,60.67
2019-03-20T13:17:45.045Z,57.33
2019-03-20T13:20:13.942Z,56.20
2019-03-20T13:22:42.752Z,57.10
2019-03-20T13:25:12.375Z,57.13
2019-03-20T13:27:41.179Z,70.50
2019-03-20T13:30:20.049Z,65.07
2019-03-20T13:32:43.931Z,59.03
2019-03-20T13:35:12.728Z,66.10
2019-03-20T13:37:41.542Z,63.07
2019-03-20T13:40:14.571Z,57.57
2019-03-20T13:42:39.424Z,68.90
2019-03-20T13:45:11.334Z,66.83
2019-03-20T13:47:40.138Z,61.63
2019-03-20T13:50:10.546Z,63.00
2019-03-20T13:52:39.329Z,61.67
2019-03-20T13:55:08.651Z,57.63
2019-03-20T13:57:37.462Z,65.10
2019-03-20T14:00:10.521Z,69.03
2019-03-20T14:02:39.335Z,64.17
2019-03-20T14:05:08.172Z,65.53
2019-03-20T14:07:36.972Z,70.63
2019-03-20T14:10:06.074Z,66.67
2019-03-20T14:12:34.897Z,70.23
2019-03-20T14:15:03.687Z,69.77
2019-03-20T14:17:32.555Z,70.03
2019-03-20T14:20:01.321Z,73.77
2019-03-20T14:22:30.132Z,70.00
2019-03-20T14:24:58.961Z,79.00
2019-03-20T14:27:27.813Z,78.63
2019-03-20T14:29:56.645Z,73.20
2019-03-20T14:32:25.456Z,65.40
2019-03-20T14:34:54.283Z,66.83
2019-03-20T14:37:23.067Z,64.47
2019-03-20T14:39:51.936Z,68.40
2019-03-20T14:42:20.786Z,61.83
2019-03-20T14:44:51.783Z,56.47
2019-03-20T14:47:19.475Z,58.60
2019-03-20T14:49:48.364Z,65.60
2019-03-20T14:52:17.256Z,59.67
2019-03-20T14:54:46.056Z,68.17
2019-03-20T14:57:14.955Z,66.43
2019-03-20T14:59:43.813Z,61.30
2019-03-20T15:02:12.615Z,61.83
2019-03-20T15:04:42.110Z,62.67
2019-03-20T15:07:11.060Z,60.73
2019-03-20T15:09:39.935Z,56.47
2019-03-20T15:12:08.747Z,62.57
2019-03-20T15:14:37.595Z,56.73
2019-03-20T15:17:06.434Z,53.53
2019-03-20T15:19:35.250Z,62.97
2019-03-20T15:22:05.407Z,54.63
2019-03-20T15:24:34.275Z,53.73
2019-03-20T15:27:03.148Z,58.57
2019-03-20T15:29:32.207Z,55.00
2019-03-20T15:32:01.130Z,56.00
2019-03-20T15:34:29.942Z,61.93
2019-03-20T15:36:58.801Z,50.80
2019-03-20T15:39:27.615Z,53.97
2019-03-20T15:41:56.506Z,59.13
2019-03-20T15:44:25.402Z,58.63
2019-03-20T15:46:54.338Z,57.73
2019-03-20T15:49:23.246Z,55.77
2019-03-20T15:51:52.068Z,58.47
2019-03-20T15:54:23.043Z,54.40
2019-03-20T15:56:51.896Z,56.70
2019-03-20T15:59:21.336Z,52.63
2019-03-20T16:01:50.180Z,61.07
2019-03-20T16:04:19.069Z,61.60
2019-03-20T16:06:47.966Z,54.13
2019-03-20T16:09:16.824Z,57.27
2019-03-20T16:11:45.664Z,60.90
2019-03-20T16:14:15.275Z,54.77
2019-03-20T16:16:44.129Z,60.03
2019-03-20T16:19:12.957Z,62.90
2019-03-20T16:21:41.826Z,56.67
2019-03-20T16:24:10.655Z,55.70
2019-03-20T16:26:39.515Z,57.30
2019-03-20T16:29:08.395Z,56.53
2019-03-20T16:31:37.836Z,56.27
2019-03-20T16:34:06.696Z,53.70
2019-03-20T16:36:35.545Z,55.00
2019-03-20T16:39:05.967Z,53.93
2019-03-20T16:41:37.051Z,62.27
2019-03-20T16:44:06.023Z,56.43
2019-03-20T16:46:34.827Z,54.27
2019-03-20T16:49:03.829Z,55.33
2019-03-20T16:51:37.848Z,56.20
2019-03-20T16:54:06.694Z,51.63
2019-03-20T16:56:37.156Z,49.47
2019-03-20T16:59:05.959Z,47.17
2019-03-20T17:01:34.823Z,53.87
2019-03-20T17:04:03.623Z,53.87
2019-03-20T17:06:32.530Z,54.57
2019-03-20T17:09:01.343Z,54.23
2019-03-20T17:11:38.093Z,50.63
2019-03-20T17:13:59.920Z,46.50
2019-03-20T17:16:28.784Z,59.23
2019-03-20T17:18:57.624Z,47.30
2019-03-20T17:21:26.465Z,47.37
2019-03-20T17:23:55.440Z,46.33
2019-03-20T17:26:24.334Z,51.53
2019-03-20T17:28:53.199Z,48.67
2019-03-20T17:31:21.997Z,43.07
2019-03-20T17:33:50.796Z,55.63
2019-03-20T17:36:19.700Z,48.03
2019-03-20T17:38:48.597Z,44.67
2019-03-20T17:41:17.536Z,49.43
2019-03-20T17:43:46.407Z,49.93
2019-03-20T17:46:17.389Z,41.10
2019-03-20T17:48:44.712Z,50.33
2019-03-20T17:51:13.593Z,53.37
2019-03-20T17:53:42.411Z,59.87
2019-03-20T17:56:11.299Z,45.57
2019-03-20T17:58:40.208Z,49.43
2019-03-20T18:01:08.992Z,59.97
2019-03-20T18:03:37.834Z,46.50
2019-03-20T18:06:06.672Z,59.47
2019-03-20T18:08:35.500Z,51.43
2019-03-20T18:11:04.392Z,58.57
2019-03-20T18:13:33.208Z,53.03
2019-03-20T18:16:01.990Z,48.20
2019-03-20T18:18:30.809Z,54.20
2019-03-20T18:20:59.587Z,51.87
2019-03-20T18:23:28.413Z,46.90
2019-03-20T18:25:57.261Z,48.30
2019-03-20T18:28:26.092Z,50.33
2019-03-20T18:30:55.743Z,52.63
2019-03-20T18:33:24.582Z,46.63
2019-03-20T18:35:53.406Z,44.20
2019-03-20T18:38:22.200Z,52.70
2019-03-20T18:40:50.985Z,45.77
2019-03-20T18:43:19.798Z,47.77
2019-03-20T18:45:48.715Z,43.57
2019-03-20T18:48:17.536Z,55.20
2019-03-20T18:50:46.357Z,38.23
2019-03-20T18:53:15.203Z,48.57
2019-03-20T18:55:44.082Z,42.60
2019-03-20T18:58:12.880Z,47.50
2019-03-20T19:00:41.713Z,46.03
2019-03-20T19:03:10.535Z,47.83
2019-03-20T19:05:42.736Z,42.37
2019-03-20T19:08:11.521Z,48.47
2019-03-20T19:10:40.332Z,46.70
2019-03-20T19:13:09.141Z,46.67
2019-03-20T19:15:37.944Z,43.27
2019-03-20T19:18:06.757Z,50.70
2019-03-20T19:20:35.548Z,47.73
2019-03-20T19:23:04.365Z,47.17
2019-03-20T19:25:33.210Z,52.03
2019-03-20T19:28:02.019Z,58.43
2019-03-20T19:30:30.812Z,56.67
2019-03-20T19:33:00.482Z,52.20
2019-03-20T19:35:29.291Z,48.37
2019-03-20T19:37:58.703Z,50.57
2019-03-20T19:40:27.524Z,47.20
2019-03-20T19:42:56.447Z,54.20
2019-03-20T19:45:25.307Z,54.13
2019-03-20T19:47:54.176Z,57.40
2019-03-20T19:50:23.102Z,51.57
2019-03-20T19:52:52.027Z,48.20
2019-03-20T19:55:20.850Z,55.27
2019-03-20T19:57:49.776Z,59.53
2019-03-20T20:00:19.112Z,50.27
2019-03-20T20:02:47.957Z,51.87
2019-03-20T20:05:16.900Z,45.13
2019-03-20T20:07:45.698Z,48.03
2019-03-20T20:10:14.598Z,46.37
2019-03-20T20:12:44.245Z,47.83
2019-03-20T20:15:15.303Z,52.00
2019-03-20T20:17:44.164Z,50.43
2019-03-20T20:20:14.645Z,52.33
2019-03-20T20:22:43.583Z,44.30
2019-03-20T20:25:13.608Z,47.37
2019-03-20T20:27:42.514Z,46.37
2019-03-20T20:30:13.667Z,55.57
2019-03-20T20:32:42.544Z,50.73
2019-03-20T20:35:11.556Z,49.77
2019-03-20T20:37:40.395Z,58.77
2019-03-20T20:40:11.159Z,49.57
2019-03-20T20:42:43.306Z,53.63
2019-03-20T20:45:08.873Z,49.60
2019-03-20T20:47:37.671Z,44.47
2019-03-20T20:50:06.617Z,53.63
2019-03-20T20:52:35.422Z,40.00
2019-03-20T20:55:05.029Z,46.30
2019-03-20T20:57:33.965Z,52.80
2019-03-20T21:00:03.050Z,43.03
2019-03-20T21:02:31.838Z,44.27
2019-03-20T21:05:00.739Z,47.80
2019-03-20T21:07:29.552Z,38.00
2019-03-20T21:09:58.355Z,42.63
2019-03-20T21:12:27.346Z,54.33
2019-03-20T21:14:56.140Z,43.60
2019-03-20T21:22:52.748Z,54.37
2019-03-20T21:28:23.336Z,43.87
2019-03-20T21:36:39.143Z,101.00
2019-03-20T21:41:57.782Z,49.20
2019-03-20T21:44:55.852Z,43.27
2019-03-20T21:47:33.674Z,43.10
2019-03-20T21:55:52.018Z,46.50
2019-03-20T22:01:46.266Z,44.77
2019-03-20T22:07:09.461Z,48.70
2019-03-20T22:09:51.974Z,43.83
2019-03-20T22:17:55.339Z,45.13
2019-03-20T22:29:22.170Z,44.77
2019-03-20T22:33:32.111Z,45.83
2019-03-20T22:39:46.770Z,52.67
